sensor_id;sensor_type;location;lat;lon;timestamp;temperature;humidity
6520;DHT22;3293;51.690;5.982;2023-06-14T00:00:47;18.30;32.80
6520;DHT22;3293;51.690;5.982;2023-06-14T00:05:48;18.20;31.90
6520;DHT22;3293;51.690;5.982;2023-06-14T00:10:49;18.10;37.20
6520;DHT22;3293;51.690;5.982;2023-06-14T00:15:49;18.00;32.50
6520;DHT22;3293;51.690;5.982;2023-06-14T00:20:50;18.00;30.30
6520;DHT22;3293;51.690;5.982;2023-06-14T00:25:51;17.90;30.40
6520;DHT22;3293;51.690;5.982;2023-06-14T00:30:51;17.90;31.50
6520;DHT22;3293;51.690;5.982;2023-06-14T00:35:51;18.00;29.60
6520;DHT22;3293;51.690;5.982;2023-06-14T00:40:53;18.00;29.70
6520;DHT22;3293;51.690;5.982;2023-06-14T00:45:53;17.80;29.50
6520;DHT22;3293;51.690;5.982;2023-06-14T00:50:54;17.80;32.00
6520;DHT22;3293;51.690;5.982;2023-06-14T00:55:55;17.70;34.00
6520;DHT22;3293;51.690;5.982;2023-06-14T01:00:55;17.50;34.70
6520;DHT22;3293;51.690;5.982;2023-06-14T01:06:21;17.40;34.70
6520;DHT22;3293;51.690;5.982;2023-06-14T01:11:30;17.40;35.00
6520;DHT22;3293;51.690;5.982;2023-06-14T01:16:32;17.40;34.30
6520;DHT22;3293;51.690;5.982;2023-06-14T01:21:32;17.30;34.10
6520;DHT22;3293;51.690;5.982;2023-06-14T01:26:38;17.20;34.30
6520;DHT22;3293;51.690;5.982;2023-06-14T01:31:38;17.20;35.70
6520;DHT22;3293;51.690;5.982;2023-06-14T01:36:42;17.10;36.20
6520;DHT22;3293;51.690;5.982;2023-06-14T01:41:44;17.00;36.10
6520;DHT22;3293;51.690;5.982;2023-06-14T01:46:45;17.00;35.10
6520;DHT22;3293;51.690;5.982;2023-06-14T01:51:45;17.00;35.80
6520;DHT22;3293;51.690;5.982;2023-06-14T01:56:45;17.00;35.50
6520;DHT22;3293;51.690;5.982;2023-06-14T02:01:45;17.00;36.40
6520;DHT22;3293;51.690;5.982;2023-06-14T02:06:45;16.90;36.80
6520;DHT22;3293;51.690;5.982;2023-06-14T02:11:45;16.90;35.70
6520;DHT22;3293;51.690;5.982;2023-06-14T02:16:45;16.90;36.10
6520;DHT22;3293;51.690;5.982;2023-06-14T02:21:48;16.90;36.30
6520;DHT22;3293;51.690;5.982;2023-06-14T02:26:49;16.80;36.70
6520;DHT22;3293;51.690;5.982;2023-06-14T02:31:50;16.70;37.40
6520;DHT22;3293;51.690;5.982;2023-06-14T02:36:50;16.70;37.70
6520;DHT22;3293;51.690;5.982;2023-06-14T02:41:50;16.60;39.20
6520;DHT22;3293;51.690;5.982;2023-06-14T02:46:50;16.50;40.10
6520;DHT22;3293;51.690;5.982;2023-06-14T02:51:50;16.40;41.40
6520;DHT22;3293;51.690;5.982;2023-06-14T02:56:50;16.30;41.60
6520;DHT22;3293;51.690;5.982;2023-06-14T03:01:50;16.20;44.40
6520;DHT22;3293;51.690;5.982;2023-06-14T03:06:50;16.10;45.20
6520;DHT22;3293;51.690;5.982;2023-06-14T03:11:50;16.10;45.80
6520;DHT22;3293;51.690;5.982;2023-06-14T03:16:50;16.00;46.30
6520;DHT22;3293;51.690;5.982;2023-06-14T03:21:51;15.90;47.50
6520;DHT22;3293;51.690;5.982;2023-06-14T03:26:51;15.90;48.40
6520;DHT22;3293;51.690;5.982;2023-06-14T03:31:58;15.80;49.80
6520;DHT22;3293;51.690;5.982;2023-06-14T03:36:58;15.80;51.20
6520;DHT22;3293;51.690;5.982;2023-06-14T03:41:58;15.70;51.40
6520;DHT22;3293;51.690;5.982;2023-06-14T03:46:58;15.70;50.40
6520;DHT22;3293;51.690;5.982;2023-06-14T03:51:58;15.80;50.30
6520;DHT22;3293;51.690;5.982;2023-06-14T03:56:59;15.80;49.80
6520;DHT22;3293;51.690;5.982;2023-06-14T04:01:59;15.90;50.00
6520;DHT22;3293;51.690;5.982;2023-06-14T04:06:59;15.90;49.70
6520;DHT22;3293;51.690;5.982;2023-06-14T04:12:00;15.90;49.80
6520;DHT22;3293;51.690;5.982;2023-06-14T04:17:00;16.00;49.60
6520;DHT22;3293;51.690;5.982;2023-06-14T04:22:00;16.00;49.60
6520;DHT22;3293;51.690;5.982;2023-06-14T04:27:01;16.20;49.90
6520;DHT22;3293;51.690;5.982;2023-06-14T04:32:02;16.30;49.40
6520;DHT22;3293;51.690;5.982;2023-06-14T04:37:02;16.50;48.10
6520;DHT22;3293;51.690;5.982;2023-06-14T04:42:02;16.70;48.20
6520;DHT22;3293;51.690;5.982;2023-06-14T04:47:03;16.90;45.90
6520;DHT22;3293;51.690;5.982;2023-06-14T04:52:04;17.10;45.20
6520;DHT22;3293;51.690;5.982;2023-06-14T04:57:04;17.30;44.10
6520;DHT22;3293;51.690;5.982;2023-06-14T05:02:05;17.90;40.90
6520;DHT22;3293;51.690;5.982;2023-06-14T05:07:07;18.90;36.30
6520;DHT22;3293;51.690;5.982;2023-06-14T05:12:08;20.90;27.00
6520;DHT22;3293;51.690;5.982;2023-06-14T05:17:09;22.60;22.70
6520;DHT22;3293;51.690;5.982;2023-06-14T05:22:09;23.50;19.50
6520;DHT22;3293;51.690;5.982;2023-06-14T05:27:09;24.10;17.70
6520;DHT22;3293;51.690;5.982;2023-06-14T05:32:10;25.00;15.90
6520;DHT22;3293;51.690;5.982;2023-06-14T05:37:10;25.50;14.70
6520;DHT22;3293;51.690;5.982;2023-06-14T05:42:10;25.60;14.40
6520;DHT22;3293;51.690;5.982;2023-06-14T05:47:11;25.60;14.40
6520;DHT22;3293;51.690;5.982;2023-06-14T05:52:11;26.00;13.80
6520;DHT22;3293;51.690;5.982;2023-06-14T05:57:12;26.60;13.10
6520;DHT22;3293;51.690;5.982;2023-06-14T06:02:12;27.00;12.30
6520;DHT22;3293;51.690;5.982;2023-06-14T06:07:13;27.70;11.30
6520;DHT22;3293;51.690;5.982;2023-06-14T06:12:13;28.50;9.60
6520;DHT22;3293;51.690;5.982;2023-06-14T06:17:13;28.70;9.40
6520;DHT22;3293;51.690;5.982;2023-06-14T06:22:13;28.50;9.60
6520;DHT22;3293;51.690;5.982;2023-06-14T06:27:13;28.30;9.00
6520;DHT22;3293;51.690;5.982;2023-06-14T06:32:13;28.40;9.70
6520;DHT22;3293;51.690;5.982;2023-06-14T06:37:13;29.40;8.70
6520;DHT22;3293;51.690;5.982;2023-06-14T06:42:13;29.50;7.60
6520;DHT22;3293;51.690;5.982;2023-06-14T06:47:13;29.10;8.60
6520;DHT22;3293;51.690;5.982;2023-06-14T06:52:13;29.00;9.20
6520;DHT22;3293;51.690;5.982;2023-06-14T06:57:14;29.90;8.30
6520;DHT22;3293;51.690;5.982;2023-06-14T07:02:14;30.30;7.30
6520;DHT22;3293;51.690;5.982;2023-06-14T07:07:15;30.80;6.50
6520;DHT22;3293;51.690;5.982;2023-06-14T07:12:15;31.00;5.80
6520;DHT22;3293;51.690;5.982;2023-06-14T07:17:15;30.30;6.30
6520;DHT22;3293;51.690;5.982;2023-06-14T07:22:16;30.70;6.20
6520;DHT22;3293;51.690;5.982;2023-06-14T07:27:16;30.10;6.10
6520;DHT22;3293;51.690;5.982;2023-06-14T07:32:16;29.70;6.50
6520;DHT22;3293;51.690;5.982;2023-06-14T07:37:16;29.20;6.90
6520;DHT22;3293;51.690;5.982;2023-06-14T07:42:16;29.30;6.10
6520;DHT22;3293;51.690;5.982;2023-06-14T07:47:16;29.60;6.70
6520;DHT22;3293;51.690;5.982;2023-06-14T07:52:17;30.60;4.80
6520;DHT22;3293;51.690;5.982;2023-06-14T07:57:19;30.70;5.20
6520;DHT22;3293;51.690;5.982;2023-06-14T08:02:19;31.10;3.70
6520;DHT22;3293;51.690;5.982;2023-06-14T08:07:19;31.30;3.40
6520;DHT22;3293;51.690;5.982;2023-06-14T08:12:20;30.50;4.30
6520;DHT22;3293;51.690;5.982;2023-06-14T08:17:20;30.80;4.70
6520;DHT22;3293;51.690;5.982;2023-06-14T08:22:20;30.90;3.20
6520;DHT22;3293;51.690;5.982;2023-06-14T08:27:21;30.70;3.30
6520;DHT22;3293;51.690;5.982;2023-06-14T08:32:22;30.30;4.40
6520;DHT22;3293;51.690;5.982;2023-06-14T08:37:22;31.20;3.40
6520;DHT22;3293;51.690;5.982;2023-06-14T08:42:24;30.60;3.80
6520;DHT22;3293;51.690;5.982;2023-06-14T08:47:25;30.50;3.90
6520;DHT22;3293;51.690;5.982;2023-06-14T08:52:28;31.00;3.30
6520;DHT22;3293;51.690;5.982;2023-06-14T08:57:30;30.40;3.60
6520;DHT22;3293;51.690;5.982;2023-06-14T09:02:31;30.20;3.60
6520;DHT22;3293;51.690;5.982;2023-06-14T09:07:35;30.20;3.30
6520;DHT22;3293;51.690;5.982;2023-06-14T09:12:36;30.60;3.50
6520;DHT22;3293;51.690;5.982;2023-06-14T09:17:36;30.70;2.70
6520;DHT22;3293;51.690;5.982;2023-06-14T09:22:37;30.90;2.00
6520;DHT22;3293;51.690;5.982;2023-06-14T09:27:38;29.80;3.50
6520;DHT22;3293;51.690;5.982;2023-06-14T09:32:39;31.20;2.90
6520;DHT22;3293;51.690;5.982;2023-06-14T09:37:39;31.10;2.60
6520;DHT22;3293;51.690;5.982;2023-06-14T09:42:40;30.20;3.80
6520;DHT22;3293;51.690;5.982;2023-06-14T09:47:42;30.60;2.80
6520;DHT22;3293;51.690;5.982;2023-06-14T09:52:47;30.60;3.30
6520;DHT22;3293;51.690;5.982;2023-06-14T09:57:51;29.50;4.30
6520;DHT22;3293;51.690;5.982;2023-06-14T10:02:55;28.60;5.70
6520;DHT22;3293;51.690;5.982;2023-06-14T10:08:00;28.10;7.10
6520;DHT22;3293;51.690;5.982;2023-06-14T10:13:06;27.10;7.90
6520;DHT22;3293;51.690;5.982;2023-06-14T10:23:29;26.00;9.60
6520;DHT22;3293;51.690;5.982;2023-06-14T10:28:31;25.80;11.10
6520;DHT22;3293;51.690;5.982;2023-06-14T10:38:42;25.60;10.30
6520;DHT22;3293;51.690;5.982;2023-06-14T10:43:42;25.30;10.60
6520;DHT22;3293;51.690;5.982;2023-06-14T10:48:44;25.50;10.90
6520;DHT22;3293;51.690;5.982;2023-06-14T10:53:46;25.80;10.20
6520;DHT22;3293;51.690;5.982;2023-06-14T10:58:50;25.60;10.90
6520;DHT22;3293;51.690;5.982;2023-06-14T11:03:51;25.70;9.80
6520;DHT22;3293;51.690;5.982;2023-06-14T11:13:56;25.30;10.70
6520;DHT22;3293;51.690;5.982;2023-06-14T11:18:57;25.30;9.30
6520;DHT22;3293;51.690;5.982;2023-06-14T11:23:57;25.30;9.60
6520;DHT22;3293;51.690;5.982;2023-06-14T11:29:01;25.30;9.70
6520;DHT22;3293;51.690;5.982;2023-06-14T11:34:02;25.60;9.60
6520;DHT22;3293;51.690;5.982;2023-06-14T11:39:09;25.60;9.00
6520;DHT22;3293;51.690;5.982;2023-06-14T11:44:10;25.40;9.70
6520;DHT22;3293;51.690;5.982;2023-06-14T11:49:11;25.30;10.00
6520;DHT22;3293;51.690;5.982;2023-06-14T11:54:12;25.30;10.80
6520;DHT22;3293;51.690;5.982;2023-06-14T11:59:14;25.40;10.60
6520;DHT22;3293;51.690;5.982;2023-06-14T12:04:26;25.60;10.30
6520;DHT22;3293;51.690;5.982;2023-06-14T12:09:27;25.20;10.60
6520;DHT22;3293;51.690;5.982;2023-06-14T12:14:30;25.00;11.10
6520;DHT22;3293;51.690;5.982;2023-06-14T12:19:32;25.10;10.50
6520;DHT22;3293;51.690;5.982;2023-06-14T12:24:34;25.20;10.40
6520;DHT22;3293;51.690;5.982;2023-06-14T12:29:35;25.30;10.90
6520;DHT22;3293;51.690;5.982;2023-06-14T12:34:36;25.30;11.50
6520;DHT22;3293;51.690;5.982;2023-06-14T12:39:37;25.10;11.90
6520;DHT22;3293;51.690;5.982;2023-06-14T12:44:40;25.10;11.60
6520;DHT22;3293;51.690;5.982;2023-06-14T12:49:41;25.00;12.00
6520;DHT22;3293;51.690;5.982;2023-06-14T12:54:45;25.10;11.40
6520;DHT22;3293;51.690;5.982;2023-06-14T12:59:47;25.00;10.10
6520;DHT22;3293;51.690;5.982;2023-06-14T13:04:47;24.90;10.00
6520;DHT22;3293;51.690;5.982;2023-06-14T13:09:48;25.00;10.40
6520;DHT22;3293;51.690;5.982;2023-06-14T13:14:49;25.00;10.60
6520;DHT22;3293;51.690;5.982;2023-06-14T13:19:50;24.90;11.90
6520;DHT22;3293;51.690;5.982;2023-06-14T13:24:52;25.00;10.10
6520;DHT22;3293;51.690;5.982;2023-06-14T13:29:54;24.90;11.20
6520;DHT22;3293;51.690;5.982;2023-06-14T13:34:56;25.10;10.40
6520;DHT22;3293;51.690;5.982;2023-06-14T13:39:56;25.10;12.60
6520;DHT22;3293;51.690;5.982;2023-06-14T13:44:58;24.90;10.90
6520;DHT22;3293;51.690;5.982;2023-06-14T13:49:59;24.60;12.50
6520;DHT22;3293;51.690;5.982;2023-06-14T13:55:03;24.50;12.40
6520;DHT22;3293;51.690;5.982;2023-06-14T14:00:06;24.60;12.60
6520;DHT22;3293;51.690;5.982;2023-06-14T14:05:13;24.80;12.70
6520;DHT22;3293;51.690;5.982;2023-06-14T14:10:14;24.90;12.90
6520;DHT22;3293;51.690;5.982;2023-06-14T14:15:15;25.10;12.60
6520;DHT22;3293;51.690;5.982;2023-06-14T14:20:17;25.00;10.90
6520;DHT22;3293;51.690;5.982;2023-06-14T14:25:18;25.10;11.80
6520;DHT22;3293;51.690;5.982;2023-06-14T14:30:19;24.80;12.00
6520;DHT22;3293;51.690;5.982;2023-06-14T14:35:24;24.70;12.70
6520;DHT22;3293;51.690;5.982;2023-06-14T14:40:26;24.90;13.90
6520;DHT22;3293;51.690;5.982;2023-06-14T14:45:27;24.90;12.30
6520;DHT22;3293;51.690;5.982;2023-06-14T14:50:32;24.80;12.70
6520;DHT22;3293;51.690;5.982;2023-06-14T14:55:32;24.90;11.80
6520;DHT22;3293;51.690;5.982;2023-06-14T15:00:35;24.90;12.00
6520;DHT22;3293;51.690;5.982;2023-06-14T15:05:37;24.90;12.50
6520;DHT22;3293;51.690;5.982;2023-06-14T15:10:39;24.80;13.70
6520;DHT22;3293;51.690;5.982;2023-06-14T15:15:44;24.70;13.20
6520;DHT22;3293;51.690;5.982;2023-06-14T15:20:45;24.70;14.40
6520;DHT22;3293;51.690;5.982;2023-06-14T15:25:46;24.70;13.90
6520;DHT22;3293;51.690;5.982;2023-06-14T15:30:52;24.70;13.40
6520;DHT22;3293;51.690;5.982;2023-06-14T15:35:53;24.80;12.80
6520;DHT22;3293;51.690;5.982;2023-06-14T15:40:53;24.90;12.80
6520;DHT22;3293;51.690;5.982;2023-06-14T15:45:53;24.90;13.80
6520;DHT22;3293;51.690;5.982;2023-06-14T15:50:53;25.10;12.70
6520;DHT22;3293;51.690;5.982;2023-06-14T15:55:53;25.10;12.20
6520;DHT22;3293;51.690;5.982;2023-06-14T16:00:53;24.90;13.10
6520;DHT22;3293;51.690;5.982;2023-06-14T16:05:53;25.00;12.20
6520;DHT22;3293;51.690;5.982;2023-06-14T16:10:54;24.80;12.00
6520;DHT22;3293;51.690;5.982;2023-06-14T16:15:55;24.70;11.70
6520;DHT22;3293;51.690;5.982;2023-06-14T16:20:56;24.60;12.90
6520;DHT22;3293;51.690;5.982;2023-06-14T16:25:57;24.70;14.00
6520;DHT22;3293;51.690;5.982;2023-06-14T16:30:57;24.70;13.10
6520;DHT22;3293;51.690;5.982;2023-06-14T16:35:57;24.60;12.90
6520;DHT22;3293;51.690;5.982;2023-06-14T16:40:59;24.60;13.30
6520;DHT22;3293;51.690;5.982;2023-06-14T16:46:01;24.60;12.80
6520;DHT22;3293;51.690;5.982;2023-06-14T16:51:03;24.50;12.60
6520;DHT22;3293;51.690;5.982;2023-06-14T16:56:05;24.50;11.70
6520;DHT22;3293;51.690;5.982;2023-06-14T17:01:07;24.50;11.80
6520;DHT22;3293;51.690;5.982;2023-06-14T17:06:08;24.60;12.30
6520;DHT22;3293;51.690;5.982;2023-06-14T17:11:09;24.50;13.20
6520;DHT22;3293;51.690;5.982;2023-06-14T17:16:09;24.50;13.10
6520;DHT22;3293;51.690;5.982;2023-06-14T17:21:12;24.40;13.50
6520;DHT22;3293;51.690;5.982;2023-06-14T17:26:19;24.30;14.10
6520;DHT22;3293;51.690;5.982;2023-06-14T17:31:20;24.30;13.60
6520;DHT22;3293;51.690;5.982;2023-06-14T17:36:21;24.30;14.50
6520;DHT22;3293;51.690;5.982;2023-06-14T17:41:21;24.30;14.10
6520;DHT22;3293;51.690;5.982;2023-06-14T17:46:25;24.30;14.20
6520;DHT22;3293;51.690;5.982;2023-06-14T17:51:27;24.20;14.10
6520;DHT22;3293;51.690;5.982;2023-06-14T17:56:27;24.00;14.60
6520;DHT22;3293;51.690;5.982;2023-06-14T18:01:28;24.10;15.20
6520;DHT22;3293;51.690;5.982;2023-06-14T18:06:28;24.00;15.30
6520;DHT22;3293;51.690;5.982;2023-06-14T18:11:28;24.00;15.80
6520;DHT22;3293;51.690;5.982;2023-06-14T18:16:33;23.90;15.40
6520;DHT22;3293;51.690;5.982;2023-06-14T18:21:33;23.80;16.20
6520;DHT22;3293;51.690;5.982;2023-06-14T18:26:33;23.80;16.30
6520;DHT22;3293;51.690;5.982;2023-06-14T18:31:33;23.70;16.80
6520;DHT22;3293;51.690;5.982;2023-06-14T18:36:33;23.60;17.00
6520;DHT22;3293;51.690;5.982;2023-06-14T18:41:33;23.60;16.90
6520;DHT22;3293;51.690;5.982;2023-06-14T18:46:34;23.50;16.90
6520;DHT22;3293;51.690;5.982;2023-06-14T18:51:34;23.40;16.80
6520;DHT22;3293;51.690;5.982;2023-06-14T18:56:38;23.30;17.30
6520;DHT22;3293;51.690;5.982;2023-06-14T19:01:38;23.20;18.10
6520;DHT22;3293;51.690;5.982;2023-06-14T19:06:38;23.20;18.40
6520;DHT22;3293;51.690;5.982;2023-06-14T19:11:38;23.00;18.70
6520;DHT22;3293;51.690;5.982;2023-06-14T19:16:40;22.90;19.10
6520;DHT22;3293;51.690;5.982;2023-06-14T19:21:41;22.70;19.80
6520;DHT22;3293;51.690;5.982;2023-06-14T19:26:43;22.50;20.00
6520;DHT22;3293;51.690;5.982;2023-06-14T19:31:43;22.30;20.50
6520;DHT22;3293;51.690;5.982;2023-06-14T19:36:43;22.30;20.90
6520;DHT22;3293;51.690;5.982;2023-06-14T19:41:42;22.10;21.90
6520;DHT22;3293;51.690;5.982;2023-06-14T19:46:44;22.00;22.50
6520;DHT22;3293;51.690;5.982;2023-06-14T19:51:46;21.80;23.30
6520;DHT22;3293;51.690;5.982;2023-06-14T19:56:48;21.70;24.70
6520;DHT22;3293;51.690;5.982;2023-06-14T20:01:48;21.50;25.00
6520;DHT22;3293;51.690;5.982;2023-06-14T20:06:48;21.40;26.00
6520;DHT22;3293;51.690;5.982;2023-06-14T20:11:54;21.30;26.70
6520;DHT22;3293;51.690;5.982;2023-06-14T20:16:56;21.10;27.60
6520;DHT22;3293;51.690;5.982;2023-06-14T20:21:57;21.00;28.00
6520;DHT22;3293;51.690;5.982;2023-06-14T20:26:57;20.80;28.70
6520;DHT22;3293;51.690;5.982;2023-06-14T20:31:58;20.80;29.20
6520;DHT22;3293;51.690;5.982;2023-06-14T20:36:59;20.70;30.30
6520;DHT22;3293;51.690;5.982;2023-06-14T20:41:59;20.50;31.00
6520;DHT22;3293;51.690;5.982;2023-06-14T20:47:01;20.40;32.10
6520;DHT22;3293;51.690;5.982;2023-06-14T20:52:04;20.30;33.00
6520;DHT22;3293;51.690;5.982;2023-06-14T20:57:10;20.10;34.10
6520;DHT22;3293;51.690;5.982;2023-06-14T21:02:13;20.00;36.40
6520;DHT22;3293;51.690;5.982;2023-06-14T21:07:20;20.00;37.70
6520;DHT22;3293;51.690;5.982;2023-06-14T21:12:20;19.80;39.10
6520;DHT22;3293;51.690;5.982;2023-06-14T21:17:22;19.70;40.90
6520;DHT22;3293;51.690;5.982;2023-06-14T21:22:22;19.60;40.30
6520;DHT22;3293;51.690;5.982;2023-06-14T21:27:27;19.50;41.10
6520;DHT22;3293;51.690;5.982;2023-06-14T21:32:33;19.50;40.90
6520;DHT22;3293;51.690;5.982;2023-06-14T21:37:34;19.40;40.90
6520;DHT22;3293;51.690;5.982;2023-06-14T21:42:39;19.30;41.50
6520;DHT22;3293;51.690;5.982;2023-06-14T21:47:41;19.10;42.80
6520;DHT22;3293;51.690;5.982;2023-06-14T21:52:46;19.10;44.30
6520;DHT22;3293;51.690;5.982;2023-06-14T21:57:50;18.90;45.00
6520;DHT22;3293;51.690;5.982;2023-06-14T22:02:51;18.80;45.50
6520;DHT22;3293;51.690;5.982;2023-06-14T22:07:53;18.80;46.10
6520;DHT22;3293;51.690;5.982;2023-06-14T22:12:56;18.70;46.60
6520;DHT22;3293;51.690;5.982;2023-06-14T22:18:00;18.60;47.50
6520;DHT22;3293;51.690;5.982;2023-06-14T22:23:01;18.50;48.20
6520;DHT22;3293;51.690;5.982;2023-06-14T22:28:04;18.40;50.00
6520;DHT22;3293;51.690;5.982;2023-06-14T22:33:06;18.30;50.70
6520;DHT22;3293;51.690;5.982;2023-06-14T22:38:07;18.30;51.80
6520;DHT22;3293;51.690;5.982;2023-06-14T22:43:08;18.30;51.20
6520;DHT22;3293;51.690;5.982;2023-06-14T22:48:09;18.20;51.50
6520;DHT22;3293;51.690;5.982;2023-06-14T22:53:09;18.10;52.00
6520;DHT22;3293;51.690;5.982;2023-06-14T22:58:11;18.00;53.10
6520;DHT22;3293;51.690;5.982;2023-06-14T23:03:15;18.00;54.00
6520;DHT22;3293;51.690;5.982;2023-06-14T23:08:16;17.90;54.80
6520;DHT22;3293;51.690;5.982;2023-06-14T23:13:18;17.90;55.90
6520;DHT22;3293;51.690;5.982;2023-06-14T23:18:19;17.80;55.60
6520;DHT22;3293;51.690;5.982;2023-06-14T23:23:20;17.80;55.80
6520;DHT22;3293;51.690;5.982;2023-06-14T23:28:21;17.70;56.80
6520;DHT22;3293;51.690;5.982;2023-06-14T23:33:21;17.80;56.50
6520;DHT22;3293;51.690;5.982;2023-06-14T23:38:23;17.70;57.40
6520;DHT22;3293;51.690;5.982;2023-06-14T23:43:25;17.70;57.90
6520;DHT22;3293;51.690;5.982;2023-06-14T23:48:26;17.60;59.50
6520;DHT22;3293;51.690;5.982;2023-06-14T23:53:27;17.60;60.00
6520;DHT22;3293;51.690;5.982;2023-06-14T23:58:28;17.50;60.40
